createdAt,value
2023-04-04T00:00:40.282Z,1.80
2023-04-04T00:03:10.293Z,1.38
2023-04-04T00:05:37.220Z,1.58
2023-04-04T00:08:04.150Z,1.70
2023-04-04T00:10:30.927Z,1.40
2023-04-04T00:12:57.783Z,1.85
2023-04-04T00:15:24.358Z,1.35
2023-04-04T00:17:51.003Z,1.75
2023-04-04T00:20:17.761Z,1.67
2023-04-04T00:22:44.916Z,1.40
2023-04-04T00:25:12.647Z,1.88
2023-04-04T00:27:39.183Z,1.40
2023-04-04T00:30:06.640Z,1.45
2023-04-04T00:32:33.386Z,1.83
2023-04-04T00:35:00.627Z,1.50
2023-04-04T00:37:28.245Z,1.45
2023-04-04T00:39:55.013Z,1.50
2023-04-04T00:42:21.715Z,1.55
2023-04-04T00:44:48.925Z,1.63
2023-04-04T00:47:15.792Z,1.65
2023-04-04T00:49:42.880Z,1.73
2023-04-04T00:52:09.500Z,1.92
2023-04-04T00:54:36.585Z,1.55
2023-04-04T00:57:08.496Z,1.60
2023-04-04T00:59:35.570Z,1.73
2023-04-04T01:02:02.572Z,2.03
2023-04-04T01:04:32.189Z,1.80
2023-04-04T01:06:59.273Z,1.67
2023-04-04T01:09:26.183Z,1.52
2023-04-04T01:11:54.980Z,1.45
2023-04-04T01:14:21.811Z,1.73
2023-04-04T01:16:49.790Z,1.80
2023-04-04T01:19:26.743Z,1.92
2023-04-04T01:21:54.071Z,1.90
2023-04-04T01:24:21.968Z,1.73
2023-04-04T01:26:56.163Z,1.55
2023-04-04T01:29:23.119Z,1.77
2023-04-04T01:32:01.104Z,1.55
2023-04-04T01:34:37.004Z,1.80
2023-04-04T01:37:03.709Z,1.65
2023-04-04T01:39:37.079Z,1.30
2023-04-04T01:42:03.976Z,1.55
2023-04-04T01:44:31.443Z,2.10
2023-04-04T01:46:58.118Z,1.70
2023-04-04T01:49:24.967Z,1.83
2023-04-04T01:51:53.030Z,1.70
2023-04-04T01:54:21.311Z,2.03
2023-04-04T01:56:47.915Z,1.60
2023-04-04T01:59:14.726Z,1.48
2023-04-04T02:01:48.199Z,1.33
2023-04-04T02:04:15.473Z,1.65
2023-04-04T02:06:42.249Z,1.80
2023-04-04T02:09:09.804Z,1.70
2023-04-04T02:11:37.817Z,1.50
2023-04-04T02:14:05.309Z,2.08
2023-04-04T02:16:32.615Z,1.80
2023-04-04T02:19:00.112Z,1.50
2023-04-04T02:21:27.381Z,2.08
2023-04-04T02:23:54.241Z,1.95
2023-04-04T02:26:21.564Z,1.23
2023-04-04T02:28:48.157Z,1.70
2023-04-04T02:31:14.781Z,2.08
2023-04-04T02:33:41.776Z,2.20
2023-04-04T02:36:09.957Z,1.50
2023-04-04T02:38:38.553Z,2.28
2023-04-04T02:41:06.165Z,1.88
2023-04-04T02:43:33.369Z,1.63
2023-04-04T02:46:14.463Z,1.88
2023-04-04T02:48:45.925Z,1.90
2023-04-04T02:51:13.665Z,2.28
2023-04-04T02:53:40.409Z,1.90
2023-04-04T02:56:19.803Z,1.80
2023-04-04T02:58:46.725Z,2.00
2023-04-04T03:01:13.785Z,1.80
2023-04-04T03:03:40.582Z,1.73
2023-04-04T03:06:07.540Z,1.67
2023-04-04T03:08:35.931Z,2.25
2023-04-04T03:11:06.738Z,2.00
2023-04-04T03:13:33.476Z,2.00
2023-04-04T03:16:03.421Z,2.10
2023-04-04T03:18:40.268Z,2.08
2023-04-04T03:21:07.501Z,1.80
2023-04-04T03:23:35.162Z,2.10
2023-04-04T03:26:02.584Z,2.45
2023-04-04T03:28:29.433Z,2.10
2023-04-04T03:30:56.083Z,2.13
2023-04-04T03:33:22.872Z,2.08
2023-04-04T03:35:50.099Z,1.92
2023-04-04T03:38:17.110Z,2.65
2023-04-04T03:40:44.536Z,2.10
2023-04-04T03:43:12.985Z,2.55
2023-04-04T03:45:41.354Z,2.10
2023-04-04T03:50:51.023Z,2.28
2023-04-04T03:53:18.242Z,2.40
2023-04-04T03:55:45.177Z,2.38
2023-04-04T03:58:11.753Z,2.40
2023-04-04T04:00:38.958Z,2.20
2023-04-04T04:03:06.806Z,2.40
2023-04-04T04:05:33.740Z,1.88
2023-04-04T04:10:41.608Z,2.88
2023-04-04T04:13:09.519Z,2.38
2023-04-04T04:15:37.534Z,2.28
2023-04-04T04:18:10.384Z,2.15
2023-04-04T04:20:37.835Z,2.67
2023-04-04T04:23:04.405Z,2.40
2023-04-04T04:25:31.599Z,2.30
2023-04-04T04:28:11.309Z,2.55
2023-04-04T04:30:38.882Z,2.38
2023-04-04T04:33:05.782Z,2.15
2023-04-04T04:35:42.804Z,2.55
2023-04-04T04:38:10.747Z,2.55
2023-04-04T04:40:38.716Z,2.25
2023-04-04T04:43:12.503Z,2.42
2023-04-04T04:45:41.558Z,2.58
2023-04-04T04:48:09.778Z,2.80
2023-04-04T04:50:47.432Z,2.40
2023-04-04T04:53:19.049Z,2.75
2023-04-04T04:55:48.197Z,2.60
2023-04-04T04:58:17.565Z,2.60
2023-04-04T05:00:48.709Z,2.47
2023-04-04T05:03:15.437Z,2.55
2023-04-04T05:05:48.095Z,2.00
2023-04-04T05:08:15.791Z,2.30
2023-04-04T05:11:03.939Z,2.53
2023-04-04T05:13:32.903Z,2.95
2023-04-04T05:16:00.139Z,2.33
2023-04-04T05:18:32.007Z,2.47
2023-04-04T05:20:59.532Z,3.15
2023-04-04T05:23:28.551Z,2.65
2023-04-04T05:25:56.332Z,2.50
2023-04-04T05:28:26.152Z,2.50
2023-04-04T05:30:58.158Z,2.53
2023-04-04T05:33:27.045Z,2.50
2023-04-04T05:36:04.494Z,2.70
2023-04-04T05:38:33.461Z,2.53
2023-04-04T05:40:59.981Z,2.75
2023-04-04T05:43:27.400Z,2.25
2023-04-04T05:46:00.567Z,2.90
2023-04-04T05:48:30.426Z,2.85
2023-04-04T05:50:57.127Z,3.17
2023-04-04T05:53:35.836Z,2.88
2023-04-04T05:56:04.133Z,3.00
2023-04-04T05:58:33.219Z,3.88
2023-04-04T06:01:02.508Z,3.10
2023-04-04T06:03:29.451Z,2.83
2023-04-04T06:05:58.020Z,3.30
2023-04-04T06:08:24.862Z,2.90
2023-04-04T06:10:52.741Z,2.75
2023-04-04T06:13:20.226Z,3.10
2023-04-04T06:15:52.716Z,3.28
2023-04-04T06:18:20.898Z,3.63
2023-04-04T06:20:48.472Z,3.22
2023-04-04T06:23:16.488Z,3.45
2023-04-04T06:25:46.607Z,3.75
2023-04-04T06:28:17.324Z,3.08
2023-04-04T06:30:46.835Z,3.55
2023-04-04T06:33:17.160Z,3.55
2023-04-04T06:35:47.413Z,3.08
2023-04-04T06:38:15.652Z,3.40
2023-04-04T06:40:42.551Z,3.38
2023-04-04T06:43:10.490Z,3.13
2023-04-04T06:45:39.990Z,3.13
2023-04-04T06:48:07.082Z,3.33
2023-04-04T06:50:34.019Z,3.60
2023-04-04T06:53:03.743Z,3.33
2023-04-04T06:55:30.449Z,3.45
2023-04-04T06:57:58.040Z,2.70
2023-04-04T07:00:25.056Z,2.70
2023-04-04T07:02:57.293Z,3.10
2023-04-04T07:05:24.116Z,2.80
2023-04-04T07:07:57.351Z,2.97
2023-04-04T07:10:24.967Z,2.70
2023-04-04T07:12:52.083Z,2.95
2023-04-04T07:15:19.286Z,3.33
2023-04-04T07:17:46.044Z,2.90
2023-04-04T07:20:13.752Z,3.10
2023-04-04T07:22:41.096Z,3.05
2023-04-04T07:25:08.851Z,3.30
2023-04-04T07:27:36.135Z,3.30
2023-04-04T07:30:03.498Z,2.42
2023-04-04T07:32:30.301Z,3.20
2023-04-04T07:34:57.153Z,2.75
2023-04-04T07:37:23.729Z,3.22
2023-04-04T07:39:50.705Z,2.80
2023-04-04T07:42:23.144Z,2.83
2023-04-04T07:44:50.884Z,2.50
2023-04-04T07:47:18.474Z,2.65
2023-04-04T07:49:45.222Z,2.58
2023-04-04T07:52:12.123Z,2.53
2023-04-04T07:54:40.461Z,2.60
2023-04-04T07:57:11.716Z,2.38
2023-04-04T07:59:38.844Z,2.47
2023-04-04T08:02:06.603Z,2.30
2023-04-04T08:04:34.364Z,3.38
2023-04-04T08:07:01.007Z,2.78
2023-04-04T08:09:31.561Z,2.67
2023-04-04T08:11:58.334Z,2.70
2023-04-04T08:14:25.283Z,2.60
2023-04-04T08:16:53.019Z,2.67
2023-04-04T08:19:20.465Z,2.70
2023-04-04T08:21:47.121Z,2.63
2023-04-04T08:24:14.546Z,2.63
2023-04-04T08:26:43.574Z,2.20
2023-04-04T08:29:12.242Z,2.42
2023-04-04T08:31:40.828Z,2.70
2023-04-04T08:34:08.872Z,2.33
2023-04-04T08:36:35.820Z,2.60
2023-04-04T08:39:04.019Z,2.60
2023-04-04T08:41:32.821Z,2.25
2023-04-04T08:44:02.113Z,2.17
2023-04-04T08:46:29.953Z,1.90
2023-04-04T08:48:59.742Z,2.40
2023-04-04T08:51:30.770Z,2.35
2023-04-04T08:53:58.780Z,1.92
2023-04-04T08:56:26.206Z,2.40
2023-04-04T08:58:53.049Z,2.20
2023-04-04T09:01:20.004Z,2.38
2023-04-04T09:03:47.277Z,2.08
2023-04-04T09:06:14.940Z,2.10
2023-04-04T09:08:45.778Z,1.90
2023-04-04T09:11:13.864Z,1.98
2023-04-04T09:13:41.582Z,2.40
2023-04-04T09:16:09.661Z,2.17
2023-04-04T09:18:36.906Z,2.47
2023-04-04T09:21:13.377Z,2.03
2023-04-04T09:23:39.970Z,2.20
2023-04-04T09:26:15.324Z,2.00
2023-04-04T09:28:42.328Z,2.05
2023-04-04T09:31:10.297Z,2.65
2023-04-04T09:33:39.348Z,1.80
2023-04-04T09:36:11.206Z,2.00
2023-04-04T09:38:45.626Z,1.92
2023-04-04T09:41:16.230Z,2.17
2023-04-04T09:43:46.917Z,1.70
2023-04-04T09:46:14.499Z,1.70
2023-04-04T09:48:50.585Z,1.80
2023-04-04T09:51:17.271Z,2.05
2023-04-04T09:53:48.655Z,1.80
2023-04-04T09:56:15.957Z,1.95
2023-04-04T09:58:55.958Z,1.73
2023-04-04T10:01:28.692Z,1.88
2023-04-04T10:03:56.115Z,2.65
2023-04-04T10:06:23.090Z,2.00
2023-04-04T10:08:50.009Z,1.80
2023-04-04T10:11:28.928Z,1.80
2023-04-04T10:13:57.907Z,1.77
2023-04-04T10:16:33.666Z,2.08
2023-04-04T10:19:01.728Z,1.80
2023-04-04T10:21:28.623Z,1.90
2023-04-04T10:23:56.730Z,2.00
2023-04-04T10:26:23.296Z,2.17
2023-04-04T10:28:50.779Z,2.30
2023-04-04T10:31:23.007Z,2.20
2023-04-04T10:34:08.856Z,2.28
2023-04-04T10:36:52.244Z,2.40
2023-04-04T10:39:23.560Z,1.95
2023-04-04T10:41:50.891Z,1.85
2023-04-04T10:44:33.586Z,2.13
2023-04-04T10:47:07.109Z,2.28
2023-04-04T10:49:34.339Z,1.95
2023-04-04T10:52:01.648Z,2.60
2023-04-04T10:54:29.247Z,2.00
2023-04-04T10:57:00.931Z,2.08
2023-04-04T10:59:28.598Z,2.58
2023-04-04T11:01:58.027Z,1.92
2023-04-04T11:04:35.736Z,2.08
2023-04-04T11:07:08.318Z,2.40
2023-04-04T11:09:52.830Z,2.60
2023-04-04T11:12:34.757Z,2.42
2023-04-04T11:15:04.610Z,2.20
2023-04-04T11:17:54.711Z,2.35
2023-04-04T11:20:32.061Z,2.47
2023-04-04T11:23:24.111Z,2.35
2023-04-04T11:25:54.500Z,2.50
2023-04-04T11:28:29.239Z,2.55
2023-04-04T11:31:14.657Z,2.10
2023-04-04T11:33:58.058Z,2.30
2023-04-04T11:36:45.795Z,2.30
2023-04-04T11:39:15.937Z,2.53
2023-04-04T11:41:48.896Z,2.47
2023-04-04T11:44:16.258Z,2.38
2023-04-04T11:46:43.038Z,2.10
2023-04-04T11:49:10.528Z,2.08
2023-04-04T11:51:38.921Z,2.63
2023-04-04T11:54:06.777Z,2.33
2023-04-04T11:56:39.430Z,2.22
2023-04-04T11:59:11.637Z,2.10
2023-04-04T12:01:40.785Z,2.33
2023-04-04T12:04:08.054Z,2.15
2023-04-04T12:06:36.441Z,2.35
2023-04-04T12:09:04.249Z,2.10
2023-04-04T12:11:32.156Z,2.60
2023-04-04T12:13:58.988Z,2.70
2023-04-04T12:16:25.647Z,2.20
2023-04-04T12:18:52.350Z,2.20
2023-04-04T12:21:19.522Z,2.20
2023-04-04T12:23:49.404Z,2.60
2023-04-04T12:26:18.816Z,2.60
2023-04-04T12:28:45.719Z,2.30
2023-04-04T12:31:14.177Z,2.40
2023-04-04T12:33:41.403Z,3.03
2023-04-04T12:36:08.418Z,2.15
2023-04-04T12:38:40.278Z,2.47
2023-04-04T12:41:09.623Z,2.25
2023-04-04T12:43:43.569Z,2.13
2023-04-04T12:46:10.434Z,2.22
2023-04-04T12:48:41.257Z,2.47
2023-04-04T12:51:08.890Z,2.45
2023-04-04T12:53:50.242Z,2.78
2023-04-04T12:56:17.385Z,2.55
2023-04-04T12:58:47.628Z,2.33
2023-04-04T13:01:15.724Z,2.45
2023-04-04T13:03:42.929Z,2.50
2023-04-04T13:06:14.492Z,2.45
2023-04-04T13:08:55.050Z,2.70
2023-04-04T13:11:22.762Z,2.47
2023-04-04T13:13:59.691Z,2.55
2023-04-04T13:16:32.438Z,2.70
2023-04-04T13:18:59.223Z,2.75
2023-04-04T13:21:26.478Z,2.40
2023-04-04T13:23:53.226Z,2.95
2023-04-04T13:26:20.311Z,3.08
2023-04-04T13:28:47.920Z,2.75
2023-04-04T13:31:16.060Z,2.70
2023-04-04T13:33:42.866Z,2.58
2023-04-04T13:36:09.594Z,3.15
2023-04-04T13:38:36.695Z,2.88
2023-04-04T13:41:03.601Z,2.90
2023-04-04T13:43:30.461Z,2.60
2023-04-04T13:45:59.137Z,3.08
2023-04-04T13:48:26.534Z,2.55
2023-04-04T13:50:55.491Z,2.75
2023-04-04T13:53:22.476Z,2.88
2023-04-04T13:56:13.054Z,3.33
2023-04-04T13:58:37.504Z,3.15
2023-04-04T14:01:04.862Z,3.30
2023-04-04T14:03:31.700Z,3.40
2023-04-04T14:06:03.815Z,3.42
2023-04-04T14:08:36.295Z,3.65
2023-04-04T14:11:03.314Z,3.65
2023-04-04T14:13:29.960Z,3.50
2023-04-04T14:15:57.243Z,2.75
2023-04-04T14:18:23.992Z,3.30
2023-04-04T14:20:52.367Z,3.17
2023-04-04T14:23:19.184Z,3.42
2023-04-04T14:25:45.859Z,3.40
2023-04-04T14:28:12.573Z,3.13
2023-04-04T14:30:39.244Z,3.10
2023-04-04T14:33:06.033Z,3.25
2023-04-04T14:35:32.906Z,3.80
2023-04-04T14:37:59.643Z,3.30
2023-04-04T14:40:26.572Z,3.45
2023-04-04T14:42:53.279Z,3.50
2023-04-04T14:45:20.196Z,3.25
2023-04-04T14:47:47.076Z,3.20
2023-04-04T14:50:13.598Z,3.70
2023-04-04T14:52:40.417Z,3.60
2023-04-04T14:55:09.407Z,3.63
2023-04-04T14:57:46.906Z,3.30
2023-04-04T15:00:24.400Z,3.78
2023-04-04T15:02:51.530Z,3.45
2023-04-04T15:05:18.774Z,3.65
2023-04-04T15:07:46.702Z,3.55
2023-04-04T15:10:13.437Z,3.30
2023-04-04T15:12:40.099Z,3.75
2023-04-04T15:15:07.076Z,3.55
2023-04-04T15:17:33.685Z,3.58
2023-04-04T15:20:00.653Z,3.80
2023-04-04T15:22:27.390Z,3.78
2023-04-04T15:24:56.121Z,3.67
2023-04-04T15:27:22.718Z,3.40
2023-04-04T15:29:49.629Z,4.57
2023-04-04T15:32:16.218Z,4.47
2023-04-04T15:34:42.843Z,4.97
2023-04-04T15:37:09.826Z,3.88
2023-04-04T15:39:49.714Z,4.07
2023-04-04T15:42:18.766Z,4.57
2023-04-04T15:44:45.345Z,4.10
2023-04-04T15:47:12.084Z,4.18
2023-04-04T15:49:43.102Z,4.10
2023-04-04T15:52:10.470Z,3.78
2023-04-04T15:54:37.177Z,4.00
2023-04-04T15:57:04.050Z,3.60
2023-04-04T15:59:33.540Z,3.67
2023-04-04T16:02:00.478Z,4.05
2023-04-04T16:04:27.352Z,3.95
2023-04-04T16:06:53.950Z,4.25
2023-04-04T16:09:21.632Z,4.75
2023-04-04T16:11:48.599Z,4.35
2023-04-04T16:14:16.103Z,4.30
2023-04-04T16:16:42.944Z,3.75
2023-04-04T16:19:10.433Z,4.00
2023-04-04T16:21:38.025Z,4.10
2023-04-04T16:24:05.364Z,4.25
2023-04-04T16:26:32.334Z,4.03
2023-04-04T16:28:59.087Z,3.97
2023-04-04T16:31:25.752Z,4.13
2023-04-04T16:33:52.324Z,4.07
2023-04-04T16:36:18.957Z,4.80
2023-04-04T16:38:45.839Z,4.15
2023-04-04T16:41:12.604Z,4.90
2023-04-04T16:43:39.557Z,3.83
2023-04-04T16:46:06.192Z,4.15
2023-04-04T16:48:33.230Z,4.72
2023-04-04T16:51:00.041Z,4.28
2023-04-04T16:53:26.535Z,4.70
2023-04-04T16:55:53.606Z,5.18
2023-04-04T16:58:20.429Z,4.18
2023-04-04T17:00:47.421Z,5.05
2023-04-04T17:03:14.246Z,4.70
2023-04-04T17:05:41.000Z,4.60
2023-04-04T17:08:07.888Z,5.00
2023-04-04T17:10:34.705Z,4.65
2023-04-04T17:13:02.159Z,4.40
2023-04-04T17:15:29.920Z,4.60
2023-04-04T17:17:56.681Z,4.65
2023-04-04T17:20:24.172Z,4.97
2023-04-04T17:22:52.005Z,5.00
2023-04-04T17:25:20.698Z,4.78
2023-04-04T17:27:47.363Z,5.25
2023-04-04T17:30:14.435Z,5.65
2023-04-04T17:32:41.365Z,5.18
2023-04-04T17:35:08.432Z,5.13
2023-04-04T17:37:35.035Z,4.68
2023-04-04T17:40:04.219Z,5.50
2023-04-04T17:42:30.944Z,4.93
2023-04-04T17:44:57.626Z,5.38
2023-04-04T17:47:24.476Z,4.90
2023-04-04T17:49:54.246Z,4.72
2023-04-04T17:52:20.979Z,4.55
2023-04-04T17:54:52.616Z,4.72
2023-04-04T17:57:19.668Z,4.85
2023-04-04T17:59:47.213Z,4.93
2023-04-04T18:02:14.287Z,4.65
2023-04-04T18:04:40.983Z,4.55
2023-04-04T18:07:09.124Z,5.25
2023-04-04T18:09:35.646Z,4.85
2023-04-04T18:12:02.825Z,4.82
2023-04-04T18:14:29.804Z,4.60
2023-04-04T18:16:56.887Z,4.38
2023-04-04T18:19:23.645Z,5.10
2023-04-04T18:21:51.661Z,4.80
2023-04-04T18:24:18.310Z,5.00
2023-04-04T18:26:45.538Z,5.03
2023-04-04T18:29:12.973Z,4.80
2023-04-04T18:31:39.745Z,5.70
2023-04-04T18:34:06.892Z,4.90
2023-04-04T18:36:33.700Z,5.07
2023-04-04T18:39:01.971Z,4.72
2023-04-04T18:41:28.706Z,4.55
2023-04-04T18:43:55.911Z,5.15
2023-04-04T18:46:23.214Z,4.95
2023-04-04T18:48:49.847Z,4.30
2023-04-04T18:51:16.617Z,5.20
2023-04-04T18:53:43.774Z,4.85
2023-04-04T18:56:10.850Z,4.85
2023-04-04T18:58:37.526Z,5.05
2023-04-04T19:01:04.414Z,4.75
2023-04-04T19:03:35.410Z,4.85
2023-04-04T19:06:05.159Z,4.93
2023-04-04T19:08:33.664Z,5.28
2023-04-04T19:11:00.275Z,5.70
2023-04-04T19:13:27.595Z,4.88
2023-04-04T19:15:54.350Z,5.47
2023-04-04T19:18:20.912Z,5.18
2023-04-04T19:20:47.564Z,5.32
2023-04-04T19:23:14.273Z,5.20
2023-04-04T19:25:41.406Z,5.07
2023-04-04T19:28:08.424Z,5.32
2023-04-04T19:30:39.818Z,5.25
2023-04-04T19:33:13.593Z,5.03
2023-04-04T19:36:00.402Z,5.50
2023-04-04T19:38:33.144Z,5.28
2023-04-04T19:41:00.714Z,5.43
2023-04-04T19:43:27.878Z,5.10
2023-04-04T19:45:58.467Z,5.13
2023-04-04T19:48:37.569Z,6.07
2023-04-04T19:51:07.290Z,5.53
2023-04-04T19:53:35.029Z,5.47
2023-04-04T19:56:06.462Z,5.50
2023-04-04T19:58:33.391Z,5.82
2023-04-04T20:00:59.898Z,5.68
2023-04-04T20:03:39.536Z,5.60
2023-04-04T20:06:06.597Z,5.60
2023-04-04T20:08:44.556Z,5.32
2023-04-04T20:11:12.082Z,5.47
2023-04-04T20:13:39.532Z,5.68
2023-04-04T20:16:16.281Z,6.50
2023-04-04T20:18:44.353Z,6.10
2023-04-04T20:21:13.679Z,5.85
2023-04-04T20:24:02.718Z,5.47
2023-04-04T20:26:38.707Z,5.85
2023-04-04T20:29:09.298Z,5.95
2023-04-04T20:31:41.543Z,5.75
2023-04-04T20:34:23.640Z,6.30
2023-04-04T20:36:55.020Z,6.63
2023-04-04T20:39:54.221Z,6.00
2023-04-04T20:42:30.369Z,6.22
2023-04-04T20:45:02.836Z,6.20
2023-04-04T20:47:43.267Z,6.32
2023-04-04T20:50:16.657Z,6.13
2023-04-04T20:52:50.672Z,6.70
2023-04-04T20:55:18.103Z,6.85
2023-04-04T20:57:47.633Z,6.88
2023-04-04T21:00:35.780Z,6.97
2023-04-04T21:03:09.806Z,6.97
2023-04-04T21:05:38.859Z,6.63
2023-04-04T21:08:20.612Z,6.90
2023-04-04T21:10:50.796Z,6.65
2023-04-04T21:13:24.393Z,7.25
2023-04-04T21:15:51.211Z,8.05
2023-04-04T21:18:22.745Z,7.13
2023-04-04T21:20:49.742Z,7.30
2023-04-04T21:23:19.505Z,6.75
2023-04-04T21:25:46.266Z,7.57
2023-04-04T21:28:13.060Z,7.32
2023-04-04T21:30:44.127Z,6.95
2023-04-04T21:33:16.529Z,7.13
2023-04-04T21:35:50.294Z,7.72
2023-04-04T21:38:29.974Z,7.10
2023-04-04T21:41:00.090Z,7.85
2023-04-04T21:43:27.309Z,8.20
2023-04-04T21:45:57.022Z,7.93
2023-04-04T21:48:28.174Z,8.10
2023-04-04T21:50:55.260Z,7.90
2023-04-04T21:53:22.891Z,7.30
2023-04-04T21:55:49.597Z,7.80
2023-04-04T21:58:17.022Z,7.43
2023-04-04T22:00:43.859Z,8.63
2023-04-04T22:03:10.834Z,8.18
2023-04-04T22:05:39.564Z,8.35
2023-04-04T22:08:06.730Z,8.77
2023-04-04T22:10:33.729Z,9.50
2023-04-04T22:13:01.930Z,9.73
2023-04-04T22:15:29.699Z,9.43
2023-04-04T22:18:03.910Z,10.10
2023-04-04T22:20:33.776Z,9.40
2023-04-04T22:23:05.309Z,9.48
2023-04-04T22:25:33.936Z,9.93
2023-04-04T22:28:03.263Z,10.07
2023-04-04T22:30:31.733Z,10.45
2023-04-04T22:33:03.306Z,10.38
2023-04-04T22:35:30.178Z,10.57
2023-04-04T22:38:03.842Z,10.98
2023-04-04T22:40:32.198Z,10.88
2023-04-04T22:42:59.680Z,11.57
2023-04-04T22:45:26.927Z,12.70
2023-04-04T22:47:55.048Z,12.32
2023-04-04T22:50:25.325Z,12.63
2023-04-04T22:52:54.748Z,12.32
2023-04-04T22:55:24.873Z,11.88
2023-04-04T22:57:51.638Z,13.93
2023-04-04T23:00:19.181Z,12.57
2023-04-04T23:02:46.647Z,14.32
2023-04-04T23:05:14.433Z,13.20
2023-04-04T23:07:41.886Z,12.27
2023-04-04T23:10:09.818Z,12.93
2023-04-04T23:12:37.106Z,13.20
2023-04-04T23:15:04.357Z,14.27
2023-04-04T23:17:32.569Z,13.85
2023-04-04T23:19:59.910Z,14.80
2023-04-04T23:22:27.601Z,14.65
2023-04-04T23:24:54.489Z,14.45
2023-04-04T23:27:21.212Z,14.10
2023-04-04T23:29:50.881Z,14.43
2023-04-04T23:32:17.941Z,13.80
2023-04-04T23:34:44.761Z,13.27
2023-04-04T23:37:12.254Z,14.45
2023-04-04T23:39:38.850Z,14.65
2023-04-04T23:42:05.632Z,16.50
2023-04-04T23:44:32.489Z,14.52
2023-04-04T23:46:59.241Z,15.30
2023-04-04T23:49:26.097Z,14.93
2023-04-04T23:51:52.791Z,14.77
2023-04-04T23:54:19.300Z,15.55
2023-04-04T23:56:46.149Z,15.18
2023-04-04T23:59:12.951Z,14.85
